Time;durP1;ratioP1;P1;durP2;ratioP2;P2;SDS_P1;SDS_P2;PMS_P1;PMS_P2;Temp;Humidity;BMP_temperature;BMP_pressure;BME280_temperature;BME280_humidity;BME280_pressure;Samples;Min_cycle;Max_cycle;Signal;HPM_P1;HPM_P2
2023/02/11 00:00:13;;;;;;;56.98;30.55;;;;;;;-3.40;72.67;102417.13;1532928;85;21573;-81
2023/02/11 00:02:40;;;;;;;51.45;27.30;;;;;;;-3.41;72.60;102425.77;1531636;85;21514;-80
2023/02/11 00:05:07;;;;;;;57.08;29.30;;;;;;;-3.43;72.66;102432.23;1531715;85;21411;-81
2023/02/11 00:07:34;;;;;;;55.48;29.45;;;;;;;-3.46;72.98;102437.44;1525832;85;21705;-79
2023/02/11 00:10:03;;;;;;;56.80;30.40;;;;;;;-3.48;72.65;102430.55;1533277;85;21499;-80
2023/02/11 00:12:30;;;;;;;57.70;30.27;;;;;;;-3.49;72.59;102428.84;1474415;88;21544;-80
2023/02/11 00:14:56;;;;;;;56.60;29.25;;;;;;;-3.49;72.47;102421.08;1526912;85;21432;-81
2023/02/11 00:17:22;;;;;;;65.40;32.17;;;;;;;-3.49;72.85;102429.69;1534771;85;22297;-81
2023/02/11 00:19:50;;;;;;;60.28;29.77;;;;;;;-3.50;72.70;102428.42;1524832;85;21359;-79
2023/02/11 00:22:17;;;;;;;58.90;30.37;;;;;;;-3.51;72.54;102429.27;1522945;85;21554;-80
2023/02/11 00:24:44;;;;;;;52.15;28.80;;;;;;;-3.55;72.57;102431.03;1533676;85;21433;-81
2023/02/11 00:27:10;;;;;;;53.08;26.73;;;;;;;-3.60;72.90;102430.63;1528171;85;21462;-79
2023/02/11 00:29:38;;;;;;;52.03;26.85;;;;;;;-3.61;72.70;102421.15;1528125;85;22460;-81
2023/02/11 00:32:06;;;;;;;52.88;28.75;;;;;;;-3.65;72.91;102419.87;1524682;85;21462;-81
2023/02/11 00:34:33;;;;;;;54.35;28.62;;;;;;;-3.68;72.96;102425.06;1476441;88;22477;-81
2023/02/11 00:36:59;;;;;;;51.45;28.52;;;;;;;-3.71;73.28;102428.97;1523844;85;21410;-81
2023/02/11 00:39:26;;;;;;;53.48;27.30;;;;;;;-3.72;73.31;102425.08;1480201;88;22557;-81
2023/02/11 00:41:54;;;;;;;62.38;30.05;;;;;;;-3.77;73.61;102425.12;1525646;85;21455;-81
2023/02/11 00:44:20;;;;;;;52.20;27.85;;;;;;;-3.80;74.00;102426.40;1526121;85;22275;-79
2023/02/11 00:46:46;;;;;;;61.45;30.15;;;;;;;-3.80;73.92;102428.13;1530982;85;21381;-81
2023/02/11 00:49:13;;;;;;;52.08;28.42;;;;;;;-3.79;73.66;102426.84;1534451;85;21477;-80
2023/02/11 00:51:39;;;;;;;51.73;28.17;;;;;;;-3.78;73.41;102422.52;1508246;84;21491;-80
2023/02/11 00:54:06;;;;;;;59.18;29.37;;;;;;;-3.79;73.30;102424.26;1532587;84;21373;-80
2023/02/11 00:56:33;;;;;;;55.00;30.35;;;;;;;-3.79;73.70;102414.34;1535430;84;21513;-81
2023/02/11 00:58:59;;;;;;;60.08;30.68;;;;;;;-3.81;73.47;102414.34;1534156;84;21677;-79
2023/02/11 01:01:25;;;;;;;49.45;26.05;;;;;;;-3.84;73.40;102414.36;1526496;84;21402;-81
2023/02/11 01:03:52;;;;;;;58.87;29.10;;;;;;;-3.85;73.57;102408.77;1530721;84;21366;-81
2023/02/11 01:06:18;;;;;;;51.55;27.65;;;;;;;-3.84;73.82;102410.47;1539579;84;21416;-79
2023/02/11 01:08:44;;;;;;;52.78;28.65;;;;;;;-3.84;73.54;102402.72;1538926;84;22400;-79
2023/02/11 01:11:18;;;;;;;60.88;29.85;;;;;;;-3.84;73.52;102399.27;1530003;84;21425;-80
2023/02/11 01:13:47;;;;;;;53.75;27.37;;;;;;;-3.86;73.56;102388.91;1535246;84;21381;-80
2023/02/11 01:16:14;;;;;;;55.38;29.85;;;;;;;-3.85;73.50;102384.19;1475482;88;22581;-80
2023/02/11 01:18:43;;;;;;;60.55;31.85;;;;;;;-3.87;73.91;102380.30;1478617;88;21434;-80
2023/02/11 01:21:09;;;;;;;53.63;27.98;;;;;;;-3.89;73.69;102376.00;1490811;87;21544;-80
2023/02/11 01:23:35;;;;;;;56.55;28.87;;;;;;;-3.92;73.52;102372.13;1477913;88;21574;-80
2023/02/11 01:26:01;;;;;;;59.93;28.95;;;;;;;-3.95;73.67;102366.98;1479089;88;22395;-80
2023/02/11 01:28:29;;;;;;;51.85;29.25;;;;;;;-3.98;73.84;102373.02;1499014;87;21537;-80
2023/02/11 01:30:56;;;;;;;64.45;32.17;;;;;;;-4.00;74.56;102376.48;1490032;88;22457;-78
2023/02/11 01:33:23;;;;;;;52.00;27.15;;;;;;;-4.01;74.36;102376.06;1489693;88;21522;-80
2023/02/11 01:35:49;;;;;;;53.68;29.32;;;;;;;-4.00;74.17;102370.02;1484708;87;22365;-80
2023/02/11 01:38:23;;;;;;;58.15;31.25;;;;;;;-4.02;74.22;102370.04;1455241;88;21589;-80
2023/02/11 01:40:54;;;;;;;54.08;28.23;;;;;;;-4.04;74.76;102377.38;1481487;88;21484;-80
2023/02/11 01:43:22;;;;;;;57.35;31.68;;;;;;;-4.05;74.55;102374.38;1495956;87;21441;-79
2023/02/11 01:46:19;;;;;;;61.05;32.15;;;;;;;-4.09;74.82;102362.72;1487355;88;22262;-79
2023/02/11 01:48:50;;;;;;;58.65;30.50;;;;;;;-4.11;74.77;102366.20;1477928;88;21441;-80
2023/02/11 01:51:24;;;;;;;56.42;29.07;;;;;;;-4.14;74.69;102364.48;1502757;87;21478;-80
2023/02/11 01:59:46;;;;;;;58.83;28.87;;;;;;;-4.28;75.23;102348.17;1493980;87;21426;-82
2023/02/11 02:02:16;;;;;;;61.25;31.87;;;;;;;-4.39;75.40;102347.34;1453513;88;22336;-83
2023/02/11 02:05:14;;;;;;;65.90;32.67;;;;;;;-4.49;75.61;102354.69;1474105;88;21462;-83
2023/02/11 02:08:04;;;;;;;67.12;31.48;;;;;;;-4.61;75.95;102355.14;1493942;87;21556;-80
2023/02/11 02:10:32;;;;;;;58.55;28.85;;;;;;;-4.70;76.49;102361.63;1458638;88;21537;-82
2023/02/11 02:12:58;;;;;;;68.45;35.65;;;;;;;-4.80;76.92;102364.67;1488417;88;21530;-81
2023/02/11 02:15:35;;;;;;;59.60;31.62;;;;;;;-4.85;77.24;102365.55;1491207;87;22328;-81
2023/02/11 02:18:42;;;;;;;62.13;32.48;;;;;;;-4.92;76.89;102362.12;1457267;88;22462;-81
2023/02/11 02:21:46;;;;;;;54.00;29.00;;;;;;;-4.97;77.44;102357.82;1483384;88;22335;-81
2023/02/11 02:24:29;;;;;;;56.10;28.70;;;;;;;-5.03;77.55;102353.08;1484589;87;21389;-81
2023/02/11 02:27:30;;;;;;;58.28;30.65;;;;;;;-5.04;76.93;102336.28;1480391;87;21418;-82
2023/02/11 02:30:35;;;;;;;64.53;31.20;;;;;;;-5.06;77.67;102338.88;1489930;88;21441;-82
2023/02/11 02:33:14;;;;;;;65.72;29.00;;;;;;;-5.11;77.94;102330.27;1495647;87;21411;-82
2023/02/11 02:36:18;;;;;;;67.47;32.78;;;;;;;-5.13;77.18;102321.66;1487615;88;21603;-81
2023/02/11 02:39:01;;;;;;;61.83;32.63;;;;;;;-5.12;76.47;102315.66;1482788;88;21633;-82
2023/02/11 02:41:32;;;;;;;65.67;32.40;;;;;;;-5.14;77.25;102319.95;1494644;87;21493;-82
2023/02/11 02:43:58;;;;;;;63.25;31.62;;;;;;;-5.15;77.46;102317.36;1485324;88;21470;-81
2023/02/11 02:46:31;;;;;;;57.95;31.50;;;;;;;-5.13;77.01;102320.37;1486003;88;21614;-81
2023/02/11 02:48:59;;;;;;;70.92;32.73;;;;;;;-5.11;77.42;102319.09;1496238;87;21485;-82
2023/02/11 02:52:03;;;;;;;58.40;32.48;;;;;;;-5.06;76.57;102314.35;1481746;88;21419;-80
2023/02/11 02:54:49;;;;;;;61.85;31.48;;;;;;;-5.08;77.09;102314.77;1528399;85;21425;-80
2023/02/11 02:57:47;;;;;;;59.60;31.17;;;;;;;-5.13;77.27;102307.45;1476026;88;22660;-83
2023/02/11 03:00:37;;;;;;;54.60;28.35;;;;;;;-5.15;77.17;102309.61;1526962;85;21610;-81
2023/02/11 03:03:09;;;;;;;60.12;32.05;;;;;;;-5.16;77.13;102321.66;1530263;85;21660;-83
2023/02/11 03:06:06;;;;;;;60.98;31.07;;;;;;;-5.17;77.91;102320.39;1482549;88;21500;-83
2023/02/11 03:09:05;;;;;;;57.00;29.85;;;;;;;-5.19;77.87;102323.39;1531823;85;21432;-82
2023/02/11 03:11:33;;;;;;;62.88;31.20;;;;;;;-5.23;77.48;102325.98;1476763;88;21477;-81
2023/02/11 03:14:03;;;;;;;61.10;29.18;;;;;;;-5.26;78.08;102329.00;1527112;85;21440;-81
2023/02/11 03:16:36;;;;;;;60.67;30.15;;;;;;;-5.30;78.09;102325.97;1527178;85;21417;-82
2023/02/11 03:19:18;;;;;;;59.73;29.82;;;;;;;-5.28;77.80;102325.12;1525590;85;21448;-82
2023/02/11 03:21:47;;;;;;;58.68;29.85;;;;;;;-5.24;77.89;102320.40;1517972;85;21662;-82
2023/02/11 03:24:22;;;;;;;67.27;34.63;;;;;;;-5.27;78.69;102331.13;1528530;85;21462;-82
2023/02/11 03:26:53;;;;;;;57.88;28.85;;;;;;;-5.31;78.27;102327.70;1526308;85;21358;-81
2023/02/11 03:29:43;;;;;;;60.00;30.08;;;;;;;-5.31;78.07;102332.00;1528512;85;21373;-82
2023/02/11 03:32:33;;;;;;;61.15;29.35;;;;;;;-5.33;78.16;102329.84;1535853;85;21454;-81
2023/02/11 03:35:08;;;;;;;58.78;27.87;;;;;;;-5.39;77.79;102331.14;1473471;88;21692;-81
2023/02/11 03:37:42;;;;;;;62.95;31.55;;;;;;;-5.42;77.13;102326.83;1517000;85;21440;-80
2023/02/11 03:40:20;;;;;;;56.10;28.67;;;;;;;-5.46;77.03;102323.40;1536276;85;21655;-80
2023/02/11 03:42:54;;;;;;;58.52;30.65;;;;;;;-5.51;77.13;102309.62;1527367;85;21351;-80
2023/02/11 03:45:24;;;;;;;60.85;30.88;;;;;;;-5.54;76.69;102299.30;1476766;88;21499;-80
2023/02/11 03:47:59;;;;;;;54.15;26.55;;;;;;;-5.53;76.66;102294.56;1533042;85;21554;-80
2023/02/11 03:50:27;;;;;;;60.52;31.12;;;;;;;-5.52;76.98;102287.28;1532829;85;21580;-81
2023/02/11 03:52:55;;;;;;;56.95;31.42;;;;;;;-5.51;77.39;102279.95;1533171;85;21492;-80
2023/02/11 03:55:24;;;;;;;67.12;33.98;;;;;;;-5.47;77.24;102276.53;1516722;85;21562;-80
2023/02/11 03:57:51;;;;;;;77.17;39.63;;;;;;;-5.41;77.00;102265.31;1460950;89;21418;-80
2023/02/11 04:00:18;;;;;;;83.37;42.73;;;;;;;-5.37;76.81;102260.60;1483627;88;21671;-79
2023/02/11 04:02:44;;;;;;;84.62;43.05;;;;;;;-5.31;76.99;102261.03;1464040;89;21449;-80
2023/02/11 04:05:15;;;;;;;79.62;41.58;;;;;;;-5.29;76.96;102256.73;1485736;88;21485;-82
2023/02/11 04:07:41;;;;;;;61.05;32.17;;;;;;;-5.27;76.73;102256.27;1464252;89;21522;-82
2023/02/11 04:10:08;;;;;;;68.22;32.25;;;;;;;-5.28;76.87;102252.84;1481990;88;21605;-82
2023/02/11 04:12:34;;;;;;;62.17;32.28;;;;;;;-5.31;77.53;102245.54;1447586;88;21478;-83
2023/02/11 04:15:00;;;;;;;134.30;79.40;;;;;;;-5.33;77.34;102240.80;1481226;88;21469;-80
2023/02/11 04:17:26;;;;;;;117.75;69.03;;;;;;;-5.34;77.22;102228.77;1468041;89;21780;-83
2023/02/11 04:19:53;;;;;;;80.55;40.63;;;;;;;-5.32;77.03;102221.86;1482995;88;21661;-83
2023/02/11 04:22:19;;;;;;;84.97;39.25;;;;;;;-5.30;76.71;102217.56;1462299;88;21456;-81
2023/02/11 04:24:45;;;;;;;81.37;39.55;;;;;;;-5.29;76.49;102218.02;1482038;88;21441;-82
2023/02/11 04:27:11;;;;;;;69.77;34.60;;;;;;;-5.29;76.56;102212.85;1461474;89;21471;-82
2023/02/11 04:29:38;;;;;;;67.82;33.95;;;;;;;-5.28;76.35;102218.43;1484881;88;21577;-83
2023/02/11 04:32:04;;;;;;;65.40;33.65;;;;;;;-5.29;76.33;102225.75;1450073;89;21448;-82
2023/02/11 04:34:30;;;;;;;62.45;32.30;;;;;;;-5.27;76.29;102225.30;1486527;88;21571;-84
2023/02/11 04:36:56;;;;;;;68.60;34.90;;;;;;;-5.24;76.22;102225.30;1457590;89;21478;-84
2023/02/11 04:39:22;;;;;;;99.92;48.30;;;;;;;-5.24;76.17;102225.30;1483938;88;22402;-84
2023/02/11 04:41:49;;;;;;;115.75;56.68;;;;;;;-5.25;76.00;102213.26;1463305;88;21951;-81
2023/02/11 04:44:15;;;;;;;138.40;63.78;;;;;;;-5.27;76.00;102209.81;1479008;88;21662;-81
2023/02/11 04:46:41;;;;;;;106.12;47.65;;;;;;;-5.29;75.91;102215.00;1462981;88;21506;-80
2023/02/11 04:49:12;;;;;;;77.53;36.00;;;;;;;-5.29;75.91;102218.02;1485769;88;22479;-80
2023/02/11 04:51:39;;;;;;;66.70;33.28;;;;;;;-5.29;75.94;102220.59;1466308;88;22351;-81
2023/02/11 04:54:05;;;;;;;63.45;31.20;;;;;;;-5.28;75.93;102217.14;1476599;88;21781;-81
2023/02/11 04:56:31;;;;;;;64.75;31.10;;;;;;;-5.29;76.13;102220.59;1476072;88;21486;-82
2023/02/11 04:58:57;;;;;;;65.90;34.43;;;;;;;-5.27;76.00;102230.46;1478938;88;21589;-81
2023/02/11 05:01:24;;;;;;;89.92;46.18;;;;;;;-5.25;76.20;102233.91;1470741;87;22351;-81
2023/02/11 05:03:50;;;;;;;124.18;59.05;;;;;;;-5.26;76.55;102235.64;1482030;88;22466;-81
2023/02/11 05:06:17;;;;;;;128.97;59.40;;;;;;;-5.28;76.70;102242.95;1449886;88;21457;-81
2023/02/11 05:08:43;;;;;;;108.57;54.48;;;;;;;-5.35;77.33;102243.80;1473505;88;22907;-81
2023/02/11 05:11:14;;;;;;;113.40;54.45;;;;;;;-5.44;76.91;102244.67;1477450;88;21530;-80
2023/02/11 05:13:40;;;;;;;102.47;49.70;;;;;;;-5.52;77.16;102252.45;1472795;87;21442;-81
2023/02/11 05:16:07;;;;;;;81.90;42.08;;;;;;;-5.56;77.33;102249.42;1480606;87;22514;-81
2023/02/11 05:18:33;;;;;;;71.53;37.10;;;;;;;-5.64;77.63;102249.84;1478967;87;21515;-81
2023/02/11 05:21:01;;;;;;;64.47;35.30;;;;;;;-5.67;77.53;102253.72;1454278;88;21456;-82
2023/02/11 05:23:27;;;;;;;64.85;33.08;;;;;;;-5.70;77.51;102253.31;1473789;88;21515;-82
2023/02/11 05:25:53;;;;;;;75.60;37.23;;;;;;;-5.70;77.52;102251.13;1486383;88;22300;-81
2023/02/11 05:28:19;;;;;;;73.17;36.17;;;;;;;-5.76;78.15;102261.45;1478938;88;22781;-80
2023/02/11 05:30:45;;;;;;;67.47;34.85;;;;;;;-5.82;78.00;102265.32;1477108;87;21507;-81
2023/02/11 05:33:12;;;;;;;62.50;32.13;;;;;;;-5.82;77.87;102261.45;1460461;88;21636;-81
2023/02/11 05:35:38;;;;;;;68.05;32.93;;;;;;;-5.81;77.37;102263.16;1475019;88;22291;-80
2023/02/11 05:38:04;;;;;;;71.07;31.97;;;;;;;-5.79;77.17;102261.45;1473401;87;21479;-80
2023/02/11 05:40:30;;;;;;;61.85;32.20;;;;;;;-5.82;77.13;102261.02;1472203;88;21383;-80
2023/02/11 05:42:57;;;;;;;72.90;35.73;;;;;;;-5.81;76.89;102247.28;1472011;88;22454;-80
2023/02/11 05:45:23;;;;;;;64.82;33.40;;;;;;;-5.80;77.25;102256.73;1474427;87;21515;-80
2023/02/11 05:47:49;;;;;;;65.12;31.20;;;;;;;-5.79;78.04;102257.59;1484443;88;21715;-80
2023/02/11 05:50:15;;;;;;;71.25;34.35;;;;;;;-5.76;78.12;102257.59;1481340;88;21412;-80
2023/02/11 05:52:42;;;;;;;61.83;31.48;;;;;;;-5.72;77.91;102246.43;1480348;88;21501;-81
2023/02/11 05:55:08;;;;;;;67.47;32.50;;;;;;;-5.66;77.82;102246.42;1484823;87;22024;-80
2023/02/11 05:57:35;;;;;;;56.10;28.50;;;;;;;-5.61;77.41;102242.53;1461562;89;21584;-80
2023/02/11 06:00:02;;;;;;;58.13;29.27;;;;;;;-5.57;77.26;102236.09;1463620;88;21434;-80
2023/02/11 06:02:28;;;;;;;60.85;30.52;;;;;;;-5.52;77.47;102232.23;1458128;89;22287;-80
2023/02/11 06:04:54;;;;;;;55.10;28.05;;;;;;;-5.46;77.25;102234.38;1471500;88;21404;-81
2023/02/11 06:07:20;;;;;;;67.62;32.13;;;;;;;-5.39;77.09;102233.07;1473127;89;21525;-81
2023/02/11 06:09:47;;;;;;;52.65;30.12;;;;;;;-5.34;76.91;102233.50;1472591;88;22351;-81
2023/02/11 06:12:13;;;;;;;53.50;28.70;;;;;;;-5.30;76.71;102231.76;1458121;89;21621;-81
2023/02/11 06:14:40;;;;;;;60.23;31.05;;;;;;;-5.25;76.63;102222.30;1466394;88;21523;-80
2023/02/11 06:17:06;;;;;;;57.65;30.57;;;;;;;-5.25;76.77;102217.13;1461288;89;21488;-81
2023/02/11 06:19:32;;;;;;;53.48;26.50;;;;;;;-5.18;76.49;102211.08;1467236;88;21589;-81
2023/02/11 06:21:58;;;;;;;54.77;27.60;;;;;;;-5.12;76.57;102211.09;1463626;89;21450;-84
2023/02/11 06:24:25;;;;;;;56.63;28.60;;;;;;;-5.03;76.41;102212.34;1476196;88;21999;-85
2023/02/11 06:26:51;;;;;;;56.28;27.58;;;;;;;-4.96;76.21;102207.16;1452343;89;21385;-81
2023/02/11 06:29:18;;;;;;;49.05;26.42;;;;;;;-4.93;76.07;102201.98;1470852;88;22351;-81
2023/02/11 06:31:44;;;;;;;58.35;27.13;;;;;;;-4.88;75.94;102209.28;1465214;89;21472;-81
2023/02/11 06:34:10;;;;;;;52.48;27.02;;;;;;;-4.87;75.80;102200.22;1473538;88;21553;-82
2023/02/11 06:36:39;;;;;;;61.28;30.62;;;;;;;-4.82;75.63;102193.76;1465502;89;22420;-82
2023/02/11 06:39:06;;;;;;;56.77;27.93;;;;;;;-4.77;75.56;102180.40;1467623;88;21433;-80
2023/02/11 06:41:33;;;;;;;55.25;28.00;;;;;;;-4.69;75.44;102176.05;1437411;89;21590;-83
2023/02/11 06:43:59;;;;;;;56.23;27.45;;;;;;;-4.62;75.29;102185.92;1464987;88;21456;-82
2023/02/11 06:46:25;;;;;;;56.30;27.37;;;;;;;-4.58;75.22;102184.58;1453924;89;21719;-81
2023/02/11 06:48:51;;;;;;;61.23;28.00;;;;;;;-4.51;75.06;102180.70;1469399;88;21508;-81
2023/02/11 06:51:21;;;;;;;57.25;29.92;;;;;;;-4.49;74.90;102186.25;1459662;89;22485;-81
2023/02/11 06:53:46;;;;;;;61.40;31.57;;;;;;;-4.39;74.90;102185.79;1475446;88;21515;-81
2023/02/11 06:56:20;;;;;;;66.90;34.63;;;;;;;-4.34;74.69;102178.43;1445991;88;22432;-82
2023/02/11 06:58:47;;;;;;;68.17;33.18;;;;;;;-4.33;74.43;102167.65;1528411;85;21484;-79
2023/02/11 07:01:15;;;;;;;56.15;29.30;;;;;;;-4.32;74.58;102170.65;1531137;85;21506;-81
2023/02/11 07:03:44;;;;;;;65.32;34.08;;;;;;;-4.25;74.64;102170.20;1483960;88;21382;-81
2023/02/11 07:06:14;;;;;;;60.60;30.57;;;;;;;-4.19;74.66;102161.95;1525054;85;21632;-82
2023/02/11 07:08:42;;;;;;;55.58;27.55;;;;;;;-4.15;74.61;102163.62;1532633;85;22026;-80
2023/02/11 07:11:14;;;;;;;61.55;31.35;;;;;;;-4.13;74.41;102148.12;1523032;85;21424;-79
2023/02/11 07:13:41;;;;;;;56.90;32.00;;;;;;;-4.04;74.53;102144.59;1527720;85;21433;-79
2023/02/11 07:16:11;;;;;;;66.60;30.55;;;;;;;-4.03;74.65;102138.10;1523953;85;21506;-79
2023/02/11 07:18:38;;;;;;;49.90;24.37;;;;;;;-3.93;74.62;102136.31;1565648;85;21440;-77
2023/02/11 07:21:07;;;;;;;54.70;30.12;;;;;;;-4.00;74.15;102128.17;1445526;85;22217;-78
2023/02/11 07:23:34;;;;;;;55.35;28.50;;;;;;;-3.91;74.47;102141.05;1450144;85;21432;-78
2023/02/11 07:26:05;;;;;;;54.95;28.95;;;;;;;-3.82;74.55;102135.79;1444475;85;21433;-77
2023/02/11 07:28:32;;;;;;;55.12;26.12;;;;;;;-3.78;74.31;102127.11;1556474;88;21419;-80
2023/02/11 07:30:59;;;;;;;56.63;28.32;;;;;;;-3.79;73.95;102121.53;1451436;85;21337;-80
2023/02/11 07:33:25;;;;;;;55.25;29.25;;;;;;;-3.74;74.26;102117.17;1446209;85;22380;-78
2023/02/11 07:35:51;;;;;;;60.52;29.57;;;;;;;-3.64;74.17;102123.95;1446485;85;21330;-79
2023/02/11 07:38:17;;;;;;;72.78;31.05;;;;;;;-3.58;74.03;102127.36;1446600;85;22387;-81
2023/02/11 07:40:43;;;;;;;63.78;33.58;;;;;;;-3.48;74.23;102134.14;1446433;85;21485;-79
2023/02/11 07:43:10;;;;;;;56.70;29.87;;;;;;;-3.32;74.20;102133.55;1446241;85;21410;-79
2023/02/11 07:45:38;;;;;;;54.48;29.75;;;;;;;-3.15;74.04;102136.80;1446440;85;21344;-80
2023/02/11 07:48:05;;;;;;;54.38;28.77;;;;;;;-3.03;73.26;102128.87;1444380;85;21322;-80
2023/02/11 07:50:31;;;;;;;51.60;26.95;;;;;;;-2.91;72.39;102132.18;1446021;85;21403;-80
2023/02/11 07:52:57;;;;;;;61.58;31.25;;;;;;;-2.86;72.49;102133.84;1446275;85;22321;-80
2023/02/11 07:55:23;;;;;;;62.50;29.87;;;;;;;-2.83;72.00;102140.72;1439230;85;21493;-90
2023/02/11 07:57:50;;;;;;;50.23;29.72;;;;;;;-2.76;72.31;102142.37;1535155;89;21316;-89
2023/02/11 08:00:16;;;;;;;56.70;31.82;;;;;;;-2.77;71.83;102149.26;1406986;88;21551;-85
2023/02/11 08:02:42;;;;;;;49.70;26.00;;;;;;;-2.82;71.72;102156.27;1387112;89;21661;-86
2023/02/11 08:05:09;;;;;;;56.85;28.92;;;;;;;-2.78;71.97;102159.22;1407616;88;21353;-85
2023/02/11 08:07:36;;;;;;;63.08;33.23;;;;;;;-2.77;71.86;102154.44;1389470;89;21507;-86
2023/02/11 08:10:02;;;;;;;68.15;34.63;;;;;;;-2.77;71.77;102152.30;1420392;88;22298;-88
2023/02/11 08:12:29;;;;;;;64.87;32.58;;;;;;;-2.73;72.19;102165.20;1466943;89;21367;-87
2023/02/11 08:14:55;;;;;;;63.38;32.75;;;;;;;-2.69;72.06;102175.53;1483058;88;22601;-87
2023/02/11 08:17:22;;;;;;;54.42;29.98;;;;;;;-2.70;71.54;102167.31;1461661;89;21463;-84
2023/02/11 08:19:50;;;;;;;56.25;31.48;;;;;;;-2.74;71.84;102155.69;1481289;88;21640;-87
2023/02/11 08:22:18;;;;;;;57.60;31.07;;;;;;;-2.68;71.80;102154.76;1462042;89;21689;-86
2023/02/11 08:24:44;;;;;;;59.90;29.32;;;;;;;-2.68;71.75;102160.39;1483262;88;21455;-88
2023/02/11 08:27:10;;;;;;;57.17;31.00;;;;;;;-2.60;71.83;102178.84;1463755;89;23190;-87
2023/02/11 08:29:37;;;;;;;67.70;29.95;;;;;;;-2.54;71.79;102181.34;1483927;88;21441;-87
2023/02/11 08:32:03;;;;;;;60.05;31.95;;;;;;;-2.44;72.08;102188.58;1457271;88;21565;-86
2023/02/11 08:34:29;;;;;;;61.70;32.28;;;;;;;-2.35;71.94;102185.85;1484185;88;21478;-85
2023/02/11 08:36:56;;;;;;;67.78;31.15;;;;;;;-2.21;71.98;102183.06;1461006;89;21573;-85
2023/02/11 08:39:22;;;;;;;59.90;33.55;;;;;;;-2.12;71.46;102182.91;1465013;88;21544;-87
2023/02/11 08:41:53;;;;;;;58.68;30.72;;;;;;;-2.01;71.60;102186.65;1461971;89;21611;-89
2023/02/11 08:44:23;;;;;;;62.83;32.63;;;;;;;-1.93;71.36;102191.25;1483798;88;21529;-86
2023/02/11 08:46:52;;;;;;;59.30;34.30;;;;;;;-1.87;71.17;102183.80;1461715;89;22483;-84
2023/02/11 08:49:19;;;;;;;59.03;32.55;;;;;;;-1.72;71.23;102178.83;1482946;88;22409;-90
2023/02/11 08:51:46;;;;;;;60.78;32.60;;;;;;;-1.59;70.96;102173.81;1461046;89;21507;-87
2023/02/11 08:54:14;;;;;;;65.70;33.70;;;;;;;-1.50;70.63;102161.95;1481117;87;21710;-88
2023/02/11 08:56:40;;;;;;;66.53;35.63;;;;;;;-1.51;70.17;102145.97;1406611;87;21375;-85
2023/02/11 08:59:08;;;;;;;60.50;35.03;;;;;;;-1.40;70.15;102140.14;1407821;87;22247;-87
2023/02/11 09:01:35;;;;;;;62.38;35.38;;;;;;;-1.37;69.25;102130.98;1444858;85;21359;-86
2023/02/11 09:04:01;;;;;;;71.87;37.60;;;;;;;-1.36;69.14;102130.09;1445470;85;21484;-86
2023/02/11 09:06:28;;;;;;;66.92;37.33;;;;;;;-1.23;69.77;102124.68;1383078;89;21323;-87
2023/02/11 09:08:56;;;;;;;64.80;37.42;;;;;;;-1.13;69.28;102124.89;1445813;85;22426;-83
2023/02/11 09:11:27;;;;;;;71.87;39.60;;;;;;;-1.19;68.54;102114.63;1399974;88;21530;-87
2023/02/11 09:13:53;;;;;;;;;;;;;;;-1.18;69.08;102116.32;1621252;85;21453;-85
2023/02/11 09:16:23;;;;;;;69.62;36.70;;;;;;;-1.27;69.17;102115.22;1613277;85;20263;-88
2023/02/11 09:18:50;;;;;;;67.65;38.15;;;;;;;-1.20;69.76;102120.27;1397606;88;21463;-85
2023/02/11 09:21:18;;;;;;;67.97;38.85;;;;;;;-1.17;68.68;102119.35;1452522;85;21485;-84
2023/02/11 09:23:46;;;;;;;67.67;37.98;;;;;;;-1.10;69.31;102115.73;1444585;85;21367;-89
2023/02/11 09:26:22;;;;;;;62.80;35.78;;;;;;;-1.02;69.35;102120.33;1444035;85;22277;-87
2023/02/11 09:28:50;;;;;;;67.85;38.63;;;;;;;-0.91;69.27;102111.86;1416381;88;22336;-85
2023/02/11 09:31:20;;;;;;;70.47;36.98;;;;;;;-0.83;68.79;102109.55;1400977;88;21301;-84
2023/02/11 09:33:49;;;;;;;77.03;40.98;;;;;;;-0.78;68.88;102107.23;1441711;85;22239;-83
2023/02/11 09:36:25;;;;;;;85.40;45.03;;;;;;;-0.76;68.11;102107.22;1399109;88;22330;-85
2023/02/11 09:38:53;;;;;;;72.10;38.88;;;;;;;-0.69;68.26;102106.20;1560109;85;21389;-85
2023/02/11 09:41:28;;;;;;;70.28;37.85;;;;;;;-0.71;67.38;102107.98;1493559;85;21447;-85
2023/02/11 09:43:58;;;;;;;68.17;37.48;;;;;;;-0.59;68.05;102112.05;1527195;85;21410;-88
2023/02/11 09:46:26;;;;;;;62.98;35.83;;;;;;;-0.49;67.80;102104.42;1525685;85;22367;-85
2023/02/11 09:48:55;;;;;;;62.40;37.03;;;;;;;-0.44;67.61;102095.22;1475595;88;21562;-85
2023/02/11 09:51:49;;;;;;;60.38;34.92;;;;;;;-0.36;67.38;102088.09;1527133;85;21455;-83
2023/02/11 09:54:50;;;;;;;60.57;34.03;;;;;;;-0.27;67.66;102090.47;1527997;85;22557;-82
2023/02/11 09:57:16;;;;;;;64.32;37.23;;;;;;;-0.13;67.33;102091.43;1514120;85;21957;-85
2023/02/11 09:59:43;;;;;;;65.30;36.45;;;;;;;-0.06;66.73;102085.16;1529240;85;21580;-84
2023/02/11 10:02:29;;;;;;;68.00;38.50;;;;;;;0.01;66.33;102084.58;1505069;85;22934;-82
2023/02/11 10:05:13;;;;;;;62.87;36.17;;;;;;;0.01;66.48;102079.38;1475511;88;21838;-84
2023/02/11 10:07:48;;;;;;;63.17;35.93;;;;;;;-0.01;66.44;102076.34;1526690;85;21763;-86
2023/02/11 10:10:22;;;;;;;70.45;38.02;;;;;;;0.02;66.48;102072.81;1521443;85;22705;-85
2023/02/11 10:13:03;;;;;;;66.00;37.33;;;;;;;0.09;66.32;102076.13;1525101;85;21550;-85
2023/02/11 10:15:50;;;;;;;66.37;36.75;;;;;;;0.18;65.34;102075.88;1503512;85;22566;-85
2023/02/11 10:18:34;;;;;;;63.80;36.27;;;;;;;0.21;64.97;102066.69;1526000;85;21418;-83
2023/02/11 10:21:20;;;;;;;62.73;40.17;;;;;;;0.23;65.02;102055.76;1479156;88;21589;-86
2023/02/11 10:23:57;;;;;;;64.83;37.43;;;;;;;0.18;64.69;102053.75;1527150;85;22396;-83
2023/02/11 10:26:27;;;;;;;67.67;38.90;;;;;;;0.23;65.05;102063.57;1477608;88;22031;-81
2023/02/11 10:28:55;;;;;;;61.77;36.80;;;;;;;0.18;65.06;102061.11;1505559;86;21853;-84
2023/02/11 10:31:30;;;;;;;67.50;39.13;;;;;;;0.21;64.82;102053.66;1529057;85;21660;-83
2023/02/11 10:34:07;;;;;;;69.80;41.90;;;;;;;0.35;65.16;102055.91;1526249;85;21614;-89
2023/02/11 10:36:38;;;;;;;79.03;45.40;;;;;;;0.48;65.30;102044.67;1526938;85;21454;-84
2023/02/11 10:39:16;;;;;;;65.20;39.80;;;;;;;0.74;64.54;102043.47;1533959;85;21723;-84
2023/02/11 10:41:46;;;;;;;67.10;38.97;;;;;;;0.77;64.52;102036.86;1528348;85;22399;-85
2023/02/11 10:44:27;;;;;;;70.42;39.42;;;;;;;0.85;65.16;102027.06;1525008;85;21848;-86
2023/02/11 10:46:54;;;;;;;88.58;47.88;;;;;;;0.89;64.75;102023.48;1526819;85;21506;-83
2023/02/11 10:49:42;;;;;;;141.53;68.33;;;;;;;0.99;64.70;102017.98;1445494;85;21609;-85
2023/02/11 10:52:24;;;;;;;99.90;51.50;;;;;;;1.03;64.41;102006.55;1469489;85;21636;-85
2023/02/11 10:55:10;;;;;;;91.43;47.97;;;;;;;1.02;63.89;102001.78;1451105;84;21453;-86
2023/02/11 10:57:43;;;;;;;73.73;41.03;;;;;;;1.07;63.68;102001.20;1624066;84;21652;-86
2023/02/11 11:00:37;;;;;;;74.57;43.33;;;;;;;1.12;63.85;101999.30;1449702;86;21577;-85
2023/02/11 11:03:18;;;;;;;64.23;36.33;;;;;;;1.31;64.26;101996.94;1610400;84;21585;-86
2023/02/11 11:05:52;;;;;;;69.67;40.95;;;;;;;1.57;63.36;101997.84;1532485;88;21762;-86
2023/02/11 11:08:19;;;;;;;65.10;37.70;;;;;;;1.58;62.36;101998.23;1481680;88;21382;-84
2023/02/11 11:11:05;;;;;;;72.13;41.70;;;;;;;1.62;62.67;101995.09;1473272;87;21813;-86
2023/02/11 11:13:39;;;;;;;67.80;37.83;;;;;;;1.85;62.49;101987.78;1485547;88;21704;-86
2023/02/11 11:16:16;;;;;;;80.20;44.40;;;;;;;1.96;61.77;101973.89;1480793;88;21860;-86
2023/02/11 11:18:46;;;;;;;85.43;50.93;;;;;;;1.96;61.77;101973.89;1488600;87;21917;-84
2023/02/11 11:21:32;;;;;;;83.23;49.63;;;;;;;1.83;61.92;101984.36;1482161;88;22534;-87
2023/02/11 11:24:02;;;;;;;90.53;54.30;;;;;;;1.74;61.96;101977.23;1483835;88;22757;-86
2023/02/11 11:26:48;;;;;;;78.43;45.60;;;;;;;1.70;62.43;101978.72;1493077;87;21747;-85
2023/02/11 11:29:20;;;;;;;74.50;44.10;;;;;;;1.53;62.52;101985.81;1476696;88;21874;-81
2023/02/11 11:32:00;;;;;;;76.63;47.10;;;;;;;1.42;62.88;101977.48;1483151;88;21938;-85